sensor_id;sensor_type;location;lat;lon;timestamp;P1;durP1;ratioP1;P2;durP2;ratioP2
57217;SDS011;43078;52.972;6.482;2022-11-15T00:00:23;23.02;;;15.93;;
57217;SDS011;43078;52.972;6.482;2022-11-15T00:02:49;21.88;;;15.45;;
57217;SDS011;43078;52.972;6.482;2022-11-15T00:05:14;21.27;;;15.75;;
57217;SDS011;43078;52.972;6.482;2022-11-15T00:07:40;18.58;;;13.93;;
57217;SDS011;43078;52.972;6.482;2022-11-15T00:10:06;20.13;;;15.13;;
57217;SDS011;43078;52.972;6.482;2022-11-15T00:12:31;21.00;;;15.90;;
57217;SDS011;43078;52.972;6.482;2022-11-15T00:14:57;19.33;;;14.90;;
57217;SDS011;43078;52.972;6.482;2022-11-15T00:17:23;21.08;;;15.32;;
57217;SDS011;43078;52.972;6.482;2022-11-15T00:19:48;19.38;;;14.82;;
57217;SDS011;43078;52.972;6.482;2022-11-15T00:22:14;22.55;;;15.95;;
57217;SDS011;43078;52.972;6.482;2022-11-15T00:24:40;20.02;;;14.77;;
57217;SDS011;43078;52.972;6.482;2022-11-15T00:27:05;19.95;;;14.77;;
57217;SDS011;43078;52.972;6.482;2022-11-15T00:29:31;19.73;;;14.75;;
57217;SDS011;43078;52.972;6.482;2022-11-15T00:31:56;20.10;;;15.85;;
57217;SDS011;43078;52.972;6.482;2022-11-15T00:34:22;21.58;;;15.52;;
57217;SDS011;43078;52.972;6.482;2022-11-15T00:36:47;18.88;;;14.88;;
57217;SDS011;43078;52.972;6.482;2022-11-15T00:39:13;20.42;;;15.32;;
57217;SDS011;43078;52.972;6.482;2022-11-15T00:41:38;21.58;;;15.07;;
57217;SDS011;43078;52.972;6.482;2022-11-15T00:44:04;20.10;;;15.02;;
57217;SDS011;43078;52.972;6.482;2022-11-15T00:46:29;19.98;;;15.25;;
57217;SDS011;43078;52.972;6.482;2022-11-15T00:48:55;21.55;;;15.82;;
57217;SDS011;43078;52.972;6.482;2022-11-15T00:51:21;21.92;;;16.63;;
57217;SDS011;43078;52.972;6.482;2022-11-15T00:53:46;23.30;;;17.02;;
57217;SDS011;43078;52.972;6.482;2022-11-15T00:56:12;20.73;;;16.10;;
57217;SDS011;43078;52.972;6.482;2022-11-15T00:58:37;24.02;;;17.80;;
57217;SDS011;43078;52.972;6.482;2022-11-15T01:01:10;23.58;;;16.40;;
57217;SDS011;43078;52.972;6.482;2022-11-15T01:03:37;20.67;;;16.10;;
57217;SDS011;43078;52.972;6.482;2022-11-15T01:06:04;22.20;;;16.08;;
57217;SDS011;43078;52.972;6.482;2022-11-15T01:08:30;22.90;;;17.85;;
57217;SDS011;43078;52.972;6.482;2022-11-15T01:11:11;21.48;;;15.57;;
57217;SDS011;43078;52.972;6.482;2022-11-15T01:13:37;23.15;;;16.65;;
57217;SDS011;43078;52.972;6.482;2022-11-15T01:18:32;21.73;;;15.95;;
57217;SDS011;43078;52.972;6.482;2022-11-15T01:20:58;20.92;;;16.42;;
57217;SDS011;43078;52.972;6.482;2022-11-15T01:23:24;20.70;;;16.13;;
57217;SDS011;43078;52.972;6.482;2022-11-15T01:25:49;19.90;;;16.00;;
57217;SDS011;43078;52.972;6.482;2022-11-15T01:28:15;22.65;;;16.95;;
57217;SDS011;43078;52.972;6.482;2022-11-15T01:30:40;21.90;;;16.45;;
57217;SDS011;43078;52.972;6.482;2022-11-15T01:33:06;22.02;;;16.63;;
57217;SDS011;43078;52.972;6.482;2022-11-15T01:35:32;23.30;;;17.02;;
57217;SDS011;43078;52.972;6.482;2022-11-15T01:37:57;22.75;;;16.02;;
57217;SDS011;43078;52.972;6.482;2022-11-15T01:40:23;23.55;;;16.55;;
57217;SDS011;43078;52.972;6.482;2022-11-15T01:42:48;23.67;;;16.58;;
57217;SDS011;43078;52.972;6.482;2022-11-15T01:45:14;22.80;;;15.63;;
57217;SDS011;43078;52.972;6.482;2022-11-15T01:47:42;24.73;;;17.00;;
57217;SDS011;43078;52.972;6.482;2022-11-15T01:50:13;24.08;;;16.70;;
57217;SDS011;43078;52.972;6.482;2022-11-15T01:52:42;25.02;;;16.40;;
57217;SDS011;43078;52.972;6.482;2022-11-15T01:55:10;25.83;;;16.60;;
57217;SDS011;43078;52.972;6.482;2022-11-15T01:57:40;26.00;;;17.15;;
57217;SDS011;43078;52.972;6.482;2022-11-15T02:00:08;25.67;;;17.55;;
57217;SDS011;43078;52.972;6.482;2022-11-15T02:02:34;28.98;;;18.42;;
57217;SDS011;43078;52.972;6.482;2022-11-15T02:05:02;24.83;;;17.30;;
57217;SDS011;43078;52.972;6.482;2022-11-15T02:07:28;26.48;;;17.52;;
57217;SDS011;43078;52.972;6.482;2022-11-15T02:09:56;23.65;;;15.70;;
57217;SDS011;43078;52.972;6.482;2022-11-15T02:12:26;23.90;;;16.75;;
57217;SDS011;43078;52.972;6.482;2022-11-15T02:14:52;24.40;;;16.73;;
57217;SDS011;43078;52.972;6.482;2022-11-15T02:20:08;22.17;;;15.35;;
57217;SDS011;43078;52.972;6.482;2022-11-15T02:25:41;26.42;;;17.77;;
57217;SDS011;43078;52.972;6.482;2022-11-15T02:31:04;23.20;;;16.13;;
57217;SDS011;43078;52.972;6.482;2022-11-15T02:36:24;22.65;;;15.52;;
57217;SDS011;43078;52.972;6.482;2022-11-15T02:39:10;20.35;;;14.73;;
57217;SDS011;43078;52.972;6.482;2022-11-15T02:42:01;23.15;;;16.10;;
57217;SDS011;43078;52.972;6.482;2022-11-15T02:44:51;21.95;;;15.25;;
57217;SDS011;43078;52.972;6.482;2022-11-15T02:47:20;23.40;;;16.15;;
57217;SDS011;43078;52.972;6.482;2022-11-15T02:49:49;24.38;;;16.85;;
57217;SDS011;43078;52.972;6.482;2022-11-15T02:52:17;25.63;;;17.25;;
57217;SDS011;43078;52.972;6.482;2022-11-15T02:54:52;24.23;;;16.20;;
57217;SDS011;43078;52.972;6.482;2022-11-15T02:57:21;22.33;;;14.27;;
57217;SDS011;43078;52.972;6.482;2022-11-15T03:00:06;25.10;;;15.90;;
57217;SDS011;43078;52.972;6.482;2022-11-15T03:08:33;21.02;;;14.48;;
57217;SDS011;43078;52.972;6.482;2022-11-15T03:11:09;21.88;;;15.07;;
57217;SDS011;43078;52.972;6.482;2022-11-15T03:16:20;25.98;;;15.82;;
57217;SDS011;43078;52.972;6.482;2022-11-15T03:18:58;24.80;;;16.42;;
57217;SDS011;43078;52.972;6.482;2022-11-15T03:21:29;31.25;;;18.05;;
57217;SDS011;43078;52.972;6.482;2022-11-15T03:23:57;29.65;;;17.92;;
57217;SDS011;43078;52.972;6.482;2022-11-15T03:26:25;22.58;;;14.73;;
57217;SDS011;43078;52.972;6.482;2022-11-15T03:28:53;21.80;;;15.02;;
57217;SDS011;43078;52.972;6.482;2022-11-15T03:31:27;22.38;;;15.73;;
57217;SDS011;43078;52.972;6.482;2022-11-15T03:34:32;22.17;;;14.77;;
57217;SDS011;43078;52.972;6.482;2022-11-15T03:37:08;25.80;;;15.82;;
57217;SDS011;43078;52.972;6.482;2022-11-15T03:39:36;25.88;;;16.02;;
57217;SDS011;43078;52.972;6.482;2022-11-15T03:47:19;32.13;;;17.90;;
57217;SDS011;43078;52.972;6.482;2022-11-15T03:49:53;37.25;;;18.67;;
57217;SDS011;43078;52.972;6.482;2022-11-15T03:52:23;27.13;;;16.50;;
57217;SDS011;43078;52.972;6.482;2022-11-15T03:54:53;29.15;;;16.23;;
57217;SDS011;43078;52.972;6.482;2022-11-15T03:57:20;38.55;;;20.88;;
57217;SDS011;43078;52.972;6.482;2022-11-15T03:59:46;28.77;;;17.15;;
57217;SDS011;43078;52.972;6.482;2022-11-15T04:02:11;30.83;;;17.90;;
57217;SDS011;43078;52.972;6.482;2022-11-15T04:04:37;28.40;;;17.75;;
57217;SDS011;43078;52.972;6.482;2022-11-15T04:07:03;31.45;;;17.73;;
57217;SDS011;43078;52.972;6.482;2022-11-15T04:09:29;28.77;;;16.75;;
57217;SDS011;43078;52.972;6.482;2022-11-15T04:11:54;29.58;;;17.58;;
57217;SDS011;43078;52.972;6.482;2022-11-15T04:14:20;28.33;;;16.73;;
57217;SDS011;43078;52.972;6.482;2022-11-15T04:16:46;28.63;;;16.73;;
57217;SDS011;43078;52.972;6.482;2022-11-15T04:19:11;26.63;;;16.23;;
57217;SDS011;43078;52.972;6.482;2022-11-15T04:21:55;27.25;;;16.88;;
57217;SDS011;43078;52.972;6.482;2022-11-15T04:24:39;27.13;;;16.77;;
57217;SDS011;43078;52.972;6.482;2022-11-15T04:27:05;30.10;;;17.00;;
57217;SDS011;43078;52.972;6.482;2022-11-15T04:29:31;29.80;;;18.05;;
57217;SDS011;43078;52.972;6.482;2022-11-15T04:31:59;34.20;;;19.67;;
57217;SDS011;43078;52.972;6.482;2022-11-15T04:34:25;28.42;;;17.65;;
57217;SDS011;43078;52.972;6.482;2022-11-15T04:36:51;40.88;;;21.42;;
57217;SDS011;43078;52.972;6.482;2022-11-15T04:39:35;39.60;;;22.08;;
57217;SDS011;43078;52.972;6.482;2022-11-15T04:42:00;31.73;;;18.13;;
57217;SDS011;43078;52.972;6.482;2022-11-15T04:44:26;34.15;;;19.52;;
57217;SDS011;43078;52.972;6.482;2022-11-15T04:46:52;37.92;;;21.73;;
57217;SDS011;43078;52.972;6.482;2022-11-15T04:49:17;34.30;;;19.05;;
57217;SDS011;43078;52.972;6.482;2022-11-15T04:51:43;36.00;;;20.17;;
57217;SDS011;43078;52.972;6.482;2022-11-15T04:54:09;29.33;;;17.67;;
57217;SDS011;43078;52.972;6.482;2022-11-15T04:56:34;42.58;;;21.33;;
57217;SDS011;43078;52.972;6.482;2022-11-15T04:59:00;43.35;;;22.33;;
57217;SDS011;43078;52.972;6.482;2022-11-15T05:01:25;38.65;;;20.52;;
57217;SDS011;43078;52.972;6.482;2022-11-15T05:03:51;46.42;;;24.50;;
57217;SDS011;43078;52.972;6.482;2022-11-15T05:06:35;29.23;;;17.33;;
57217;SDS011;43078;52.972;6.482;2022-11-15T05:09:01;53.83;;;24.88;;
57217;SDS011;43078;52.972;6.482;2022-11-15T05:11:26;40.00;;;21.08;;
57217;SDS011;43078;52.972;6.482;2022-11-15T05:13:52;41.70;;;21.30;;
57217;SDS011;43078;52.972;6.482;2022-11-15T05:16:18;35.22;;;19.70;;
57217;SDS011;43078;52.972;6.482;2022-11-15T05:18:44;33.40;;;19.13;;
57217;SDS011;43078;52.972;6.482;2022-11-15T05:21:10;46.75;;;25.33;;
57217;SDS011;43078;52.972;6.482;2022-11-15T05:23:38;41.40;;;22.08;;
57217;SDS011;43078;52.972;6.482;2022-11-15T05:26:05;41.28;;;22.73;;
57217;SDS011;43078;52.972;6.482;2022-11-15T05:28:32;39.92;;;22.10;;
57217;SDS011;43078;52.972;6.482;2022-11-15T05:31:01;38.33;;;22.05;;
57217;SDS011;43078;52.972;6.482;2022-11-15T05:33:28;54.53;;;28.23;;
57217;SDS011;43078;52.972;6.482;2022-11-15T05:36:02;45.80;;;23.58;;
57217;SDS011;43078;52.972;6.482;2022-11-15T05:38:29;36.55;;;20.95;;
57217;SDS011;43078;52.972;6.482;2022-11-15T05:40:55;47.97;;;25.08;;
57217;SDS011;43078;52.972;6.482;2022-11-15T05:43:21;42.97;;;23.83;;
57217;SDS011;43078;52.972;6.482;2022-11-15T05:45:47;46.58;;;24.95;;
57217;SDS011;43078;52.972;6.482;2022-11-15T05:48:13;42.33;;;24.38;;
57217;SDS011;43078;52.972;6.482;2022-11-15T05:50:40;37.67;;;21.23;;
57217;SDS011;43078;52.972;6.482;2022-11-15T05:53:08;33.90;;;21.20;;
57217;SDS011;43078;52.972;6.482;2022-11-15T05:55:37;35.80;;;22.08;;
57217;SDS011;43078;52.972;6.482;2022-11-15T05:58:03;30.42;;;19.23;;
57217;SDS011;43078;52.972;6.482;2022-11-15T06:00:29;44.97;;;24.17;;
57217;SDS011;43078;52.972;6.482;2022-11-15T06:02:55;44.60;;;26.92;;
57217;SDS011;43078;52.972;6.482;2022-11-15T06:05:20;34.78;;;21.55;;
57217;SDS011;43078;52.972;6.482;2022-11-15T06:07:46;36.17;;;23.02;;
57217;SDS011;43078;52.972;6.482;2022-11-15T06:10:11;31.45;;;19.60;;
57217;SDS011;43078;52.972;6.482;2022-11-15T06:12:37;44.40;;;24.38;;
57217;SDS011;43078;52.972;6.482;2022-11-15T06:15:03;31.77;;;20.42;;
57217;SDS011;43078;52.972;6.482;2022-11-15T06:17:28;46.90;;;26.35;;
57217;SDS011;43078;52.972;6.482;2022-11-15T06:19:54;44.92;;;25.98;;
57217;SDS011;43078;52.972;6.482;2022-11-15T06:22:19;49.90;;;27.48;;
57217;SDS011;43078;52.972;6.482;2022-11-15T06:24:45;26.98;;;18.10;;
57217;SDS011;43078;52.972;6.482;2022-11-15T06:27:11;44.22;;;24.60;;
57217;SDS011;43078;52.972;6.482;2022-11-15T06:29:37;28.40;;;18.88;;
57217;SDS011;43078;52.972;6.482;2022-11-15T06:32:03;37.22;;;22.48;;
57217;SDS011;43078;52.972;6.482;2022-11-15T06:34:40;42.88;;;25.23;;
57217;SDS011;43078;52.972;6.482;2022-11-15T06:43:14;44.33;;;24.33;;
57217;SDS011;43078;52.972;6.482;2022-11-15T06:45:40;39.90;;;22.25;;
57217;SDS011;43078;52.972;6.482;2022-11-15T06:48:05;28.35;;;19.00;;
57217;SDS011;43078;52.972;6.482;2022-11-15T06:50:31;41.80;;;24.63;;
57217;SDS011;43078;52.972;6.482;2022-11-15T06:53:00;32.72;;;21.02;;
57217;SDS011;43078;52.972;6.482;2022-11-15T06:55:27;34.35;;;21.50;;
57217;SDS011;43078;52.972;6.482;2022-11-15T06:57:52;37.80;;;23.08;;
57217;SDS011;43078;52.972;6.482;2022-11-15T07:00:19;35.30;;;22.25;;
57217;SDS011;43078;52.972;6.482;2022-11-15T07:02:46;33.08;;;20.15;;
57217;SDS011;43078;52.972;6.482;2022-11-15T07:05:12;44.03;;;25.75;;
57217;SDS011;43078;52.972;6.482;2022-11-15T07:07:38;40.13;;;23.65;;
57217;SDS011;43078;52.972;6.482;2022-11-15T07:10:04;33.60;;;21.23;;
57217;SDS011;43078;52.972;6.482;2022-11-15T07:12:31;40.80;;;25.02;;
57217;SDS011;43078;52.972;6.482;2022-11-15T07:14:56;36.17;;;22.08;;
57217;SDS011;43078;52.972;6.482;2022-11-15T07:17:22;30.15;;;20.48;;
57217;SDS011;43078;52.972;6.482;2022-11-15T07:19:47;51.13;;;29.60;;
57217;SDS011;43078;52.972;6.482;2022-11-15T07:22:13;40.30;;;25.05;;
57217;SDS011;43078;52.972;6.482;2022-11-15T07:24:39;37.78;;;23.17;;
57217;SDS011;43078;52.972;6.482;2022-11-15T07:27:04;40.08;;;24.77;;
57217;SDS011;43078;52.972;6.482;2022-11-15T07:29:30;42.40;;;26.48;;
57217;SDS011;43078;52.972;6.482;2022-11-15T07:31:55;45.35;;;26.17;;
57217;SDS011;43078;52.972;6.482;2022-11-15T07:34:21;31.15;;;20.55;;
57217;SDS011;43078;52.972;6.482;2022-11-15T07:36:47;41.83;;;26.02;;
57217;SDS011;43078;52.972;6.482;2022-11-15T07:39:12;39.28;;;25.85;;
57217;SDS011;43078;52.972;6.482;2022-11-15T07:41:39;39.63;;;22.65;;
57217;SDS011;43078;52.972;6.482;2022-11-15T07:44:04;42.72;;;24.63;;
57217;SDS011;43078;52.972;6.482;2022-11-15T07:46:30;31.55;;;20.45;;
57217;SDS011;43078;52.972;6.482;2022-11-15T07:48:56;29.75;;;19.75;;
57217;SDS011;43078;52.972;6.482;2022-11-15T07:51:22;29.95;;;19.65;;
57217;SDS011;43078;52.972;6.482;2022-11-15T07:53:47;40.60;;;23.48;;
57217;SDS011;43078;52.972;6.482;2022-11-15T07:56:13;38.28;;;22.67;;
57217;SDS011;43078;52.972;6.482;2022-11-15T07:58:38;37.45;;;23.85;;
57217;SDS011;43078;52.972;6.482;2022-11-15T08:01:05;34.05;;;22.25;;
57217;SDS011;43078;52.972;6.482;2022-11-15T08:03:32;35.92;;;23.10;;
57217;SDS011;43078;52.972;6.482;2022-11-15T08:05:58;23.58;;;16.65;;
57217;SDS011;43078;52.972;6.482;2022-11-15T08:08:23;30.27;;;20.40;;
57217;SDS011;43078;52.972;6.482;2022-11-15T08:10:49;30.27;;;19.20;;
57217;SDS011;43078;52.972;6.482;2022-11-15T08:13:14;26.02;;;19.13;;
57217;SDS011;43078;52.972;6.482;2022-11-15T08:15:40;34.85;;;21.70;;
57217;SDS011;43078;52.972;6.482;2022-11-15T08:18:10;25.33;;;16.33;;
57217;SDS011;43078;52.972;6.482;2022-11-15T08:20:37;30.30;;;21.52;;
57217;SDS011;43078;52.972;6.482;2022-11-15T08:23:03;28.30;;;18.98;;
57217;SDS011;43078;52.972;6.482;2022-11-15T08:25:30;23.98;;;17.13;;
57217;SDS011;43078;52.972;6.482;2022-11-15T08:27:58;27.90;;;18.40;;
57217;SDS011;43078;52.972;6.482;2022-11-15T08:30:25;24.20;;;17.90;;
57217;SDS011;43078;52.972;6.482;2022-11-15T08:32:51;33.25;;;21.30;;
57217;SDS011;43078;52.972;6.482;2022-11-15T08:35:18;24.27;;;17.55;;
57217;SDS011;43078;52.972;6.482;2022-11-15T08:37:45;26.45;;;19.40;;
57217;SDS011;43078;52.972;6.482;2022-11-15T08:40:11;24.48;;;16.92;;
57217;SDS011;43078;52.972;6.482;2022-11-15T08:42:38;26.13;;;18.75;;
57217;SDS011;43078;52.972;6.482;2022-11-15T08:45:04;29.50;;;20.15;;
57217;SDS011;43078;52.972;6.482;2022-11-15T08:47:31;28.40;;;19.77;;
57217;SDS011;43078;52.972;6.482;2022-11-15T08:49:56;33.50;;;21.05;;
57217;SDS011;43078;52.972;6.482;2022-11-15T08:52:22;27.58;;;18.23;;
57217;SDS011;43078;52.972;6.482;2022-11-15T08:54:48;36.47;;;21.40;;
57217;SDS011;43078;52.972;6.482;2022-11-15T08:57:14;24.35;;;17.00;;
57217;SDS011;43078;52.972;6.482;2022-11-15T08:59:39;21.73;;;16.55;;
57217;SDS011;43078;52.972;6.482;2022-11-15T09:02:05;19.73;;;15.35;;
57217;SDS011;43078;52.972;6.482;2022-11-15T09:04:31;23.00;;;16.52;;
57217;SDS011;43078;52.972;6.482;2022-11-15T09:06:57;29.58;;;18.20;;
57217;SDS011;43078;52.972;6.482;2022-11-15T09:09:22;25.70;;;17.25;;
57217;SDS011;43078;52.972;6.482;2022-11-15T09:11:48;26.50;;;16.42;;
57217;SDS011;43078;52.972;6.482;2022-11-15T09:14:17;25.02;;;17.05;;
57217;SDS011;43078;52.972;6.482;2022-11-15T09:26:30;26.77;;;19.25;;
57217;SDS011;43078;52.972;6.482;2022-11-15T09:29:52;30.17;;;18.08;;
57217;SDS011;43078;52.972;6.482;2022-11-15T09:32:17;19.15;;;14.57;;
57217;SDS011;43078;52.972;6.482;2022-11-15T09:34:46;23.50;;;15.52;;
57217;SDS011;43078;52.972;6.482;2022-11-15T09:37:12;23.50;;;16.90;;
57217;SDS011;43078;52.972;6.482;2022-11-15T09:39:37;22.38;;;16.58;;
57217;SDS011;43078;52.972;6.482;2022-11-15T09:44:41;19.53;;;15.43;;
57217;SDS011;43078;52.972;6.482;2022-11-15T09:49:44;19.77;;;15.18;;
57217;SDS011;43078;52.972;6.482;2022-11-15T09:52:10;26.05;;;17.98;;
57217;SDS011;43078;52.972;6.482;2022-11-15T09:54:37;25.35;;;15.55;;
57217;SDS011;43078;52.972;6.482;2022-11-15T09:57:14;25.83;;;18.20;;
57217;SDS011;43078;52.972;6.482;2022-11-15T10:00:00;22.02;;;15.68;;
57217;SDS011;43078;52.972;6.482;2022-11-15T10:08:01;21.20;;;15.27;;
57217;SDS011;43078;52.972;6.482;2022-11-15T10:10:42;24.10;;;16.47;;
57217;SDS011;43078;52.972;6.482;2022-11-15T10:13:16;18.42;;;13.52;;
57217;SDS011;43078;52.972;6.482;2022-11-15T10:15:48;24.08;;;14.90;;
57217;SDS011;43078;52.972;6.482;2022-11-15T10:18:27;27.10;;;17.15;;
57217;SDS011;43078;52.972;6.482;2022-11-15T10:21:02;24.05;;;16.00;;
57217;SDS011;43078;52.972;6.482;2022-11-15T10:23:40;22.02;;;14.95;;
57217;SDS011;43078;52.972;6.482;2022-11-15T10:26:07;24.88;;;16.80;;
57217;SDS011;43078;52.972;6.482;2022-11-15T10:28:36;19.35;;;14.98;;
57217;SDS011;43078;52.972;6.482;2022-11-15T10:31:01;22.33;;;15.98;;
57217;SDS011;43078;52.972;6.482;2022-11-15T10:46:32;18.27;;;13.93;;
57217;SDS011;43078;52.972;6.482;2022-11-15T10:51:52;16.33;;;12.57;;
57217;SDS011;43078;52.972;6.482;2022-11-15T10:54:23;18.13;;;12.05;;
57217;SDS011;43078;52.972;6.482;2022-11-15T10:56:56;19.20;;;12.65;;
57217;SDS011;43078;52.972;6.482;2022-11-15T10:59:25;16.15;;;11.70;;
57217;SDS011;43078;52.972;6.482;2022-11-15T11:01:53;17.58;;;10.73;;
57217;SDS011;43078;52.972;6.482;2022-11-15T11:04:19;15.23;;;9.93;;
57217;SDS011;43078;52.972;6.482;2022-11-15T11:12:04;14.60;;;8.80;;
57217;SDS011;43078;52.972;6.482;2022-11-15T11:14:34;10.60;;;7.75;;
57217;SDS011;43078;52.972;6.482;2022-11-15T11:28:23;10.73;;;4.65;;
57217;SDS011;43078;52.972;6.482;2022-11-15T11:31:06;10.23;;;5.43;;
57217;SDS011;43078;52.972;6.482;2022-11-15T11:42:17;7.65;;;3.15;;
57217;SDS011;43078;52.972;6.482;2022-11-15T11:47:39;9.38;;;4.25;;
57217;SDS011;43078;52.972;6.482;2022-11-15T11:50:15;8.05;;;4.20;;
57217;SDS011;43078;52.972;6.482;2022-11-15T11:52:51;7.30;;;3.25;;
57217;SDS011;43078;52.972;6.482;2022-11-15T11:55:37;9.85;;;3.70;;
57217;SDS011;43078;52.972;6.482;2022-11-15T11:58:13;7.72;;;3.22;;
57217;SDS011;43078;52.972;6.482;2022-11-15T12:00:51;9.85;;;2.70;;
57217;SDS011;43078;52.972;6.482;2022-11-15T12:06:45;7.60;;;2.42;;
57217;SDS011;43078;52.972;6.482;2022-11-15T12:15:15;8.88;;;2.67;;
57217;SDS011;43078;52.972;6.482;2022-11-15T12:17:22;6.97;;;3.15;;
57217;SDS011;43078;52.972;6.482;2022-11-15T12:19:51;11.05;;;3.20;;
57217;SDS011;43078;52.972;6.482;2022-11-15T12:22:39;7.75;;;2.95;;
57217;SDS011;43078;52.972;6.482;2022-11-15T12:25:16;7.57;;;3.17;;
57217;SDS011;43078;52.972;6.482;2022-11-15T12:30:21;5.82;;;3.35;;
57217;SDS011;43078;52.972;6.482;2022-11-15T12:32:55;9.85;;;3.40;;
57217;SDS011;43078;52.972;6.482;2022-11-15T12:35:37;8.65;;;3.50;;
57217;SDS011;43078;52.972;6.482;2022-11-15T12:38:10;9.00;;;3.65;;
57217;SDS011;43078;52.972;6.482;2022-11-15T12:40:38;10.60;;;3.70;;
57217;SDS011;43078;52.972;6.482;2022-11-15T12:43:40;8.63;;;3.60;;
57217;SDS011;43078;52.972;6.482;2022-11-15T12:46:19;8.20;;;3.80;;
57217;SDS011;43078;52.972;6.482;2022-11-15T12:48:48;7.75;;;3.53;;
57217;SDS011;43078;52.972;6.482;2022-11-15T12:51:22;6.55;;;3.50;;
57217;SDS011;43078;52.972;6.482;2022-11-15T13:04:53;7.68;;;3.53;;
57217;SDS011;43078;52.972;6.482;2022-11-15T13:30:49;6.25;;;2.10;;
57217;SDS011;43078;52.972;6.482;2022-11-15T13:33:19;6.65;;;2.67;;
57217;SDS011;43078;52.972;6.482;2022-11-15T13:38:57;4.97;;;1.75;;
57217;SDS011;43078;52.972;6.482;2022-11-15T13:41:29;5.85;;;2.10;;
57217;SDS011;43078;52.972;6.482;2022-11-15T13:44:00;5.25;;;1.90;;
57217;SDS011;43078;52.972;6.482;2022-11-15T13:46:29;5.30;;;1.90;;
57217;SDS011;43078;52.972;6.482;2022-11-15T13:57:04;6.78;;;2.10;;
57217;SDS011;43078;52.972;6.482;2022-11-15T14:02:21;5.07;;;1.70;;
57217;SDS011;43078;52.972;6.482;2022-11-15T14:04:53;4.57;;;1.60;;
57217;SDS011;43078;52.972;6.482;2022-11-15T14:07:23;3.60;;;1.30;;
57217;SDS011;43078;52.972;6.482;2022-11-15T14:09:50;6.82;;;1.52;;
57217;SDS011;43078;52.972;6.482;2022-11-15T14:17:19;13.35;;;7.95;;
57217;SDS011;43078;52.972;6.482;2022-11-15T14:19:54;7.85;;;2.80;;
57217;SDS011;43078;52.972;6.482;2022-11-15T14:22:22;5.60;;;1.60;;
57217;SDS011;43078;52.972;6.482;2022-11-15T14:25:04;4.22;;;1.67;;
57217;SDS011;43078;52.972;6.482;2022-11-15T14:27:40;4.90;;;1.90;;
57217;SDS011;43078;52.972;6.482;2022-11-15T14:30:12;5.35;;;1.83;;
57217;SDS011;43078;52.972;6.482;2022-11-15T14:32:44;5.37;;;1.83;;
57217;SDS011;43078;52.972;6.482;2022-11-15T14:35:14;6.05;;;2.33;;
57217;SDS011;43078;52.972;6.482;2022-11-15T14:37:43;6.25;;;2.20;;
57217;SDS011;43078;52.972;6.482;2022-11-15T14:40:11;5.25;;;2.22;;
57217;SDS011;43078;52.972;6.482;2022-11-15T14:42:46;7.57;;;1.75;;
57217;SDS011;43078;52.972;6.482;2022-11-15T14:45:15;4.63;;;1.80;;
57217;SDS011;43078;52.972;6.482;2022-11-15T14:47:43;4.07;;;1.30;;
57217;SDS011;43078;52.972;6.482;2022-11-15T14:50:13;4.75;;;1.25;;
57217;SDS011;43078;52.972;6.482;2022-11-15T14:52:40;4.07;;;1.20;;
57217;SDS011;43078;52.972;6.482;2022-11-15T14:55:11;3.60;;;1.40;;
57217;SDS011;43078;52.972;6.482;2022-11-15T14:57:46;3.47;;;1.45;;
57217;SDS011;43078;52.972;6.482;2022-11-15T15:00:12;6.55;;;1.60;;
57217;SDS011;43078;52.972;6.482;2022-11-15T15:02:39;4.65;;;1.50;;
57217;SDS011;43078;52.972;6.482;2022-11-15T15:08:10;4.43;;;1.70;;
57217;SDS011;43078;52.972;6.482;2022-11-15T15:10:37;5.60;;;2.00;;
57217;SDS011;43078;52.972;6.482;2022-11-15T15:13:08;4.22;;;1.67;;
57217;SDS011;43078;52.972;6.482;2022-11-15T15:15:43;6.28;;;2.20;;
57217;SDS011;43078;52.972;6.482;2022-11-15T15:18:10;5.20;;;2.20;;
57217;SDS011;43078;52.972;6.482;2022-11-15T15:20:36;5.80;;;2.05;;
57217;SDS011;43078;52.972;6.482;2022-11-15T15:23:04;8.32;;;2.15;;
57217;SDS011;43078;52.972;6.482;2022-11-15T15:25:31;4.78;;;2.05;;
57217;SDS011;43078;52.972;6.482;2022-11-15T15:27:59;5.57;;;2.40;;
57217;SDS011;43078;52.972;6.482;2022-11-15T15:30:26;4.32;;;2.00;;
57217;SDS011;43078;52.972;6.482;2022-11-15T15:32:53;5.57;;;2.63;;
57217;SDS011;43078;52.972;6.482;2022-11-15T15:35:19;9.07;;;4.22;;
57217;SDS011;43078;52.972;6.482;2022-11-15T15:37:46;5.13;;;2.83;;
57217;SDS011;43078;52.972;6.482;2022-11-15T15:40:19;5.35;;;2.60;;
57217;SDS011;43078;52.972;6.482;2022-11-15T15:42:47;4.47;;;2.20;;
57217;SDS011;43078;52.972;6.482;2022-11-15T15:45:13;6.00;;;2.58;;
57217;SDS011;43078;52.972;6.482;2022-11-15T15:47:39;4.72;;;2.60;;
57217;SDS011;43078;52.972;6.482;2022-11-15T15:50:14;5.25;;;2.78;;
57217;SDS011;43078;52.972;6.482;2022-11-15T15:52:44;4.50;;;2.70;;
57217;SDS011;43078;52.972;6.482;2022-11-15T15:55:10;4.20;;;2.45;;
57217;SDS011;43078;52.972;6.482;2022-11-15T15:57:36;6.28;;;3.70;;
57217;SDS011;43078;52.972;6.482;2022-11-15T16:00:02;5.20;;;2.83;;
57217;SDS011;43078;52.972;6.482;2022-11-15T16:02:29;5.97;;;2.60;;
57217;SDS011;43078;52.972;6.482;2022-11-15T16:04:54;5.05;;;2.90;;
57217;SDS011;43078;52.972;6.482;2022-11-15T16:07:21;5.35;;;3.28;;
57217;SDS011;43078;52.972;6.482;2022-11-15T16:09:50;5.57;;;2.75;;
57217;SDS011;43078;52.972;6.482;2022-11-15T16:12:32;5.28;;;3.10;;
57217;SDS011;43078;52.972;6.482;2022-11-15T16:14:59;7.82;;;3.00;;
57217;SDS011;43078;52.972;6.482;2022-11-15T16:17:28;7.22;;;2.92;;
57217;SDS011;43078;52.972;6.482;2022-11-15T16:19:58;5.53;;;2.72;;
57217;SDS011;43078;52.972;6.482;2022-11-15T16:22:23;5.75;;;2.92;;
57217;SDS011;43078;52.972;6.482;2022-11-15T16:24:49;4.70;;;2.80;;
57217;SDS011;43078;52.972;6.482;2022-11-15T16:27:18;5.63;;;2.97;;
57217;SDS011;43078;52.972;6.482;2022-11-15T16:29:45;5.43;;;2.78;;
57217;SDS011;43078;52.972;6.482;2022-11-15T16:32:11;5.47;;;2.90;;
57217;SDS011;43078;52.972;6.482;2022-11-15T16:34:37;5.15;;;2.13;;
57217;SDS011;43078;52.972;6.482;2022-11-15T16:37:03;5.57;;;2.72;;
57217;SDS011;43078;52.972;6.482;2022-11-15T16:39:29;5.07;;;2.65;;
57217;SDS011;43078;52.972;6.482;2022-11-15T16:41:57;4.95;;;2.58;;
57217;SDS011;43078;52.972;6.482;2022-11-15T16:44:23;3.90;;;2.13;;
57217;SDS011;43078;52.972;6.482;2022-11-15T16:46:49;4.53;;;2.08;;
57217;SDS011;43078;52.972;6.482;2022-11-15T16:49:16;5.97;;;2.47;;
57217;SDS011;43078;52.972;6.482;2022-11-15T16:51:46;6.65;;;2.50;;
57217;SDS011;43078;52.972;6.482;2022-11-15T16:54:12;5.07;;;1.90;;
57217;SDS011;43078;52.972;6.482;2022-11-15T16:56:39;3.60;;;1.50;;
57217;SDS011;43078;52.972;6.482;2022-11-15T16:59:05;5.00;;;1.95;;
57217;SDS011;43078;52.972;6.482;2022-11-15T17:01:34;5.63;;;1.85;;
57217;SDS011;43078;52.972;6.482;2022-11-15T17:04:10;5.43;;;1.55;;
57217;SDS011;43078;52.972;6.482;2022-11-15T17:06:37;2.95;;;1.45;;
57217;SDS011;43078;52.972;6.482;2022-11-15T17:09:04;3.17;;;1.27;;
57217;SDS011;43078;52.972;6.482;2022-11-15T17:11:31;5.60;;;1.88;;
57217;SDS011;43078;52.972;6.482;2022-11-15T17:13:57;4.47;;;1.70;;
57217;SDS011;43078;52.972;6.482;2022-11-15T17:16:23;4.53;;;1.50;;
57217;SDS011;43078;52.972;6.482;2022-11-15T17:18:50;3.78;;;1.50;;
57217;SDS011;43078;52.972;6.482;2022-11-15T17:21:17;4.80;;;1.88;;
57217;SDS011;43078;52.972;6.482;2022-11-15T17:23:45;4.55;;;2.00;;